Aviation Digital Data Service (ADDS)

Output produced by METARs form (1632 UTC 22 July 2017)
found at http://www.aviationweather.gov/adds/metars/
 
KIPT 221554Z 21005KT 10SM CLR 29/21 A2988 RMK AO2 SLP113 T02890206 $
KIPT 221454Z 00000KT 10SM CLR 28/21 A2990 RMK AO2 SLP121 T02780211 58009 $
KIPT 221354Z 25004KT 10SM CLR 25/21 A2992 RMK AO2 SLP127 T02500211 $
KIPT 221254Z 00000KT 10SM SCT007 23/21 A2993 RMK AO2 SLP129 T02330211 $
KIPT 221229Z 00000KT 10SM SCT007 23/21 A2993 RMK AO2 T02280206 $
KIPT 221154Z 00000KT 10SM OVC006 22/20 A2993 RMK AO2 SLP130 T02170200 10228 20194 51011 $
KIPT 221122Z 00000KT 10SM OVC006 21/19 A2993 RMK AO2 T02110194 $
KIPT 221103Z 00000KT 10SM OVC005 21/19 A2992 RMK AO2 T02110194 $
KIPT 221054Z 33003KT 10SM OVC006 21/19 A2992 RMK AO2 SLP126 T02060194 $
KIPT 221004Z AUTO 00000KT 10SM BKN008 20/19 A2991 RMK AO2 T02000194 $
KIPT 220954Z AUTO 00000KT 10SM SCT008 20/19 A2992 RMK AO2 SLP128 T02000189 $
KIPT 220901Z AUTO 00000KT 10SM FEW006 20/19 A2989 RMK AO2 T02000189 $
KIPT 220854Z AUTO 35004KT 10SM CLR 20/19 A2990 RMK AO2 SLP119 T02000189 56013 $
KIPT 220754Z AUTO 33003KT 10SM CLR 21/19 A2990 RMK AO2 SLP118 T02110194 $
KIPT 220654Z AUTO 00000KT 10SM CLR 22/20 A2992 RMK AO2 SLP127 T02170200 $
KIPT 220554Z AUTO 00000KT 10SM CLR 23/21 A2993 RMK AO2 SLP132 T02280206 10300 20228 51008 $
KIPT 220454Z AUTO 00000KT 10SM CLR 23/22 A2993 RMK AO2 SLP132 T02330217 403330206 $
KIPT 220354Z AUTO 00000KT 10SM CLR 24/22 A2991 RMK AO2 SLP124 T02440222 $
KIPT 220254Z AUTO 18003KT 10SM CLR 25/22 A2991 RMK AO2 SLP123 T02500222 53017 $
KIPT 220154Z 19005KT 10SM BKN060 27/23 A2990 RMK AO2 SLP119 T02670233 $
KIPT 220054Z 00000KT 10SM CLR 27/22 A2987 RMK AO2 SLP110 T02720222 $
KIPT 212354Z 25004KT 10SM CLR 30/21 A2986 RMK AO2 SLP107 T03000211 10333 20300 56005 $
KIPT 212254Z 21005KT 10SM SCT060 31/22 A2986 RMK AO2 SLP108 T03110222 $
KIPT 212154Z 24007KT 10SM FEW055 32/21 A2986 RMK AO2 SLP107 T03220211 $
KIPT 212054Z 27005KT 10SM SCT060 33/21 A2987 RMK AO2 SLP111 T03330211 56014 $
KIPT 211954Z COR 270/06 10SM SCT050 33/21 A2989 RMK AO2 SLP116 T03280211
KIPT 211854Z 23006KT 10SM CLR 32/21 A2989 RMK AO2 SLP118 T03220211
KIPT 211754Z 16006KT 10SM FEW037 SCT046 SCT070 30/22 A2992 RMK AO2 SLP126 T03000222 10306 20228 58012
KIPT 211654Z 18004KT 10SM FEW035 SCT060 30/22 A2993 RMK AO2 SLP131 T03000217
KIPT 211554Z 00000KT 10SM SCT029 30/21 A2994 RMK AO2 SLP135 T03000211
KIPT 211454Z 00000KT 10SM FEW029 SCT040 29/21 A2995 RMK AO2 SLP138 T02890211 58003
KIPT 211354Z 00000KT 10SM SCT025 27/21 A2996 RMK AO2 SLP140 T02720206
KIPT 211254Z 28006KT 10SM SCT006 26/22 A2997 RMK AO2 SLP143 T02610217
KIPT 211208Z 00000KT 10SM SCT006 23/22 A2996 RMK AO2 T02280217
KIPT 211154Z VRB03KT 10SM BKN006 23/21 A2996 RMK AO2 SLP141 T02280211 10228 20206 53013
KIPT 211130Z 00000KT 10SM OVC005 22/21 A2995 RMK AO2 T02220211
KIPT 211054Z 00000KT 10SM OVC004 22/21 A2994 RMK AO2 SLP135 T02170206
KIPT 211031Z 00000KT 9SM BKN004 21/20 A2993 RMK AO2 T02060200
KIPT 211018Z 00000KT 5SM BR SCT004 21/21 A2993 RMK AO2 T02060206
KIPT 211010Z AUTO 00000KT 2 1/2SM BR SCT004 21/21 A2994 RMK AO2 T02060206
KIPT 210954Z AUTO 34003KT 10SM SCT004 21/20 A2993 RMK AO2 SLP130 T02060200
KIPT 210854Z AUTO 00000KT 5SM BR OVC004 21/21 A2992 RMK AO2 SLP127 T02110206 55001
KIPT 210754Z AUTO 00000KT 8SM OVC003 21/21 A2992 RMK AO2 SLP127 T02110211
KIPT 210750Z AUTO 00000KT 7SM OVC003 21/21 A2992 RMK AO2
KIPT 210743Z AUTO 00000KT 2SM BR OVC003 21/21 A2992 RMK AO2 T02110211
KIPT 210720Z AUTO 00000KT 3/4SM BR VV003 21/21 A2993 RMK AO2 T02110206
KIPT 210715Z AUTO 34003KT 1 1/2SM BR SCT002 21/21 A2992 RMK AO2 T02110206
KIPT 210654Z AUTO 34003KT 10SM SCT004 21/21 A2993 RMK AO2 SLP129 T02110206
KIPT 210647Z AUTO 35003KT 10SM SCT004 22/21 A2993 RMK AO2 T02170206
KIPT 210637Z AUTO 34003KT 10SM BKN004 22/21 A2993 RMK AO2 T02170206
KIPT 210611Z AUTO 00000KT 10SM BKN005 22/21 A2993 RMK AO2 T02170211
KIPT 210554Z AUTO 34003KT 10SM FEW005 22/21 A2993 RMK AO2 SLP130 T02170211 10261 20217 51002
KIPT 210506Z AUTO 34003KT 10SM FEW006 22/21 A2994 RMK AO2 T02220211
KIPT 210454Z AUTO 33003KT 10SM CLR 22/21 A2993 RMK AO2 SLP130 T02220211 403390217